sensor_id;sensor_type;location;lat;lon;timestamp;pressure;altitude;pressure_sealevel;temperature;humidity
19590;BME280;12231;42.782;23.388;2023-06-22T00:01:27;95930.91;;;18.29;100.00
19590;BME280;12231;42.782;23.388;2023-06-22T00:03:52;95928.97;;;18.31;100.00
19590;BME280;12231;42.782;23.388;2023-06-22T00:06:17;95934.00;;;18.23;100.00
19590;BME280;12231;42.782;23.388;2023-06-22T00:08:43;95929.06;;;18.20;100.00
19590;BME280;12231;42.782;23.388;2023-06-22T00:11:08;95929.63;;;18.24;100.00
19590;BME280;12231;42.782;23.388;2023-06-22T00:13:34;95936.81;;;18.11;100.00
19590;BME280;12231;42.782;23.388;2023-06-22T00:16:00;95934.28;;;18.00;100.00
19590;BME280;12231;42.782;23.388;2023-06-22T00:18:25;95927.22;;;17.91;100.00
19590;BME280;12231;42.782;23.388;2023-06-22T00:20:54;95922.84;;;17.70;100.00
19590;BME280;12231;42.782;23.388;2023-06-22T00:23:22;95921.22;;;17.58;100.00
19590;BME280;12231;42.782;23.388;2023-06-22T00:25:49;95926.31;;;17.60;100.00
19590;BME280;12231;42.782;23.388;2023-06-22T00:28:14;95922.31;;;17.56;100.00
19590;BME280;12231;42.782;23.388;2023-06-22T00:30:40;95922.31;;;17.56;100.00
19590;BME280;12231;42.782;23.388;2023-06-22T00:33:05;95925.66;;;17.47;100.00
19590;BME280;12231;42.782;23.388;2023-06-22T00:35:33;95933.34;;;17.59;100.00
19590;BME280;12231;42.782;23.388;2023-06-22T00:37:59;95925.53;;;17.48;100.00
19590;BME280;12231;42.782;23.388;2023-06-22T00:40:30;95915.13;;;17.06;100.00
19590;BME280;12231;42.782;23.388;2023-06-22T00:42:56;95913.75;;;17.22;100.00
19590;BME280;12231;42.782;23.388;2023-06-22T00:45:22;95915.84;;;17.39;100.00
19590;BME280;12231;42.782;23.388;2023-06-22T00:47:52;95914.72;;;17.21;100.00
19590;BME280;12231;42.782;23.388;2023-06-22T00:50:22;95920.22;;;17.39;100.00
19590;BME280;12231;42.782;23.388;2023-06-22T00:52:51;95919.25;;;17.51;100.00
19590;BME280;12231;42.782;23.388;2023-06-22T00:55:18;95922.00;;;17.49;100.00
19590;BME280;12231;42.782;23.388;2023-06-22T00:57:47;95932.91;;;17.32;100.00
19590;BME280;12231;42.782;23.388;2023-06-22T01:00:16;95931.78;;;17.25;100.00
19590;BME280;12231;42.782;23.388;2023-06-22T01:02:46;95931.09;;;17.12;100.00
19590;BME280;12231;42.782;23.388;2023-06-22T01:05:14;95930.06;;;17.04;100.00
19590;BME280;12231;42.782;23.388;2023-06-22T01:10:21;95929.59;;;16.99;100.00
19590;BME280;12231;42.782;23.388;2023-06-22T01:12:59;95928.19;;;16.84;100.00
19590;BME280;12231;42.782;23.388;2023-06-22T01:15:53;95936.38;;;16.79;100.00
19590;BME280;12231;42.782;23.388;2023-06-22T01:18:22;95940.50;;;16.82;100.00
19590;BME280;12231;42.782;23.388;2023-06-22T01:20:54;95942.75;;;16.86;100.00
19590;BME280;12231;42.782;23.388;2023-06-22T01:23:26;95933.84;;;16.89;100.00
19590;BME280;12231;42.782;23.388;2023-06-22T01:26:06;95939.53;;;16.94;100.00
19590;BME280;12231;42.782;23.388;2023-06-22T01:28:59;95934.69;;;16.89;100.00
19590;BME280;12231;42.782;23.388;2023-06-22T01:31:28;95933.16;;;16.87;100.00
19590;BME280;12231;42.782;23.388;2023-06-22T01:34:03;95932.91;;;16.79;100.00
19590;BME280;12231;42.782;23.388;2023-06-22T01:36:31;95937.06;;;16.92;100.00
19590;BME280;12231;42.782;23.388;2023-06-22T01:38:57;95938.22;;;16.99;100.00
19590;BME280;12231;42.782;23.388;2023-06-22T01:41:28;95945.22;;;16.99;100.00
19590;BME280;12231;42.782;23.388;2023-06-22T01:43:55;95938.34;;;16.98;100.00
19590;BME280;12231;42.782;23.388;2023-06-22T01:46:21;95935.97;;;17.06;100.00
19590;BME280;12231;42.782;23.388;2023-06-22T01:48:48;95944.81;;;17.14;100.00
19590;BME280;12231;42.782;23.388;2023-06-22T01:51:14;95948.00;;;17.18;100.00
19590;BME280;12231;42.782;23.388;2023-06-22T01:53:39;95958.75;;;17.24;100.00
19590;BME280;12231;42.782;23.388;2023-06-22T01:56:05;95957.56;;;17.28;100.00
19590;BME280;12231;42.782;23.388;2023-06-22T01:58:31;95953.63;;;17.34;100.00
19590;BME280;12231;42.782;23.388;2023-06-22T02:01:03;95959.31;;;17.39;100.00
19590;BME280;12231;42.782;23.388;2023-06-22T02:03:38;95957.41;;;17.41;100.00
19590;BME280;12231;42.782;23.388;2023-06-22T02:06:10;95954.22;;;17.37;100.00
19590;BME280;12231;42.782;23.388;2023-06-22T02:08:47;95954.34;;;17.36;100.00
19590;BME280;12231;42.782;23.388;2023-06-22T02:11:15;95956.94;;;17.36;100.00
19590;BME280;12231;42.782;23.388;2023-06-22T02:13:42;95957.53;;;17.39;100.00
19590;BME280;12231;42.782;23.388;2023-06-22T02:16:11;95965.47;;;17.38;100.00
19590;BME280;12231;42.782;23.388;2023-06-22T02:18:37;95968.09;;;17.38;100.00
19590;BME280;12231;42.782;23.388;2023-06-22T02:21:02;95963.25;;;17.33;100.00
19590;BME280;12231;42.782;23.388;2023-06-22T02:23:28;95953.88;;;17.31;100.00
19590;BME280;12231;42.782;23.388;2023-06-22T02:25:54;95950.44;;;17.30;100.00
19590;BME280;12231;42.782;23.388;2023-06-22T02:28:19;95951.16;;;17.32;100.00
19590;BME280;12231;42.782;23.388;2023-06-22T02:30:45;95945.78;;;17.97;100.00
19590;BME280;12231;42.782;23.388;2023-06-22T02:33:10;95941.84;;;18.44;100.00
19590;BME280;12231;42.782;23.388;2023-06-22T02:35:35;95941.72;;;18.85;100.00
19590;BME280;12231;42.782;23.388;2023-06-22T02:38:02;95943.31;;;19.26;100.00
19590;BME280;12231;42.782;23.388;2023-06-22T02:40:29;95958.28;;;19.82;100.00
19590;BME280;12231;42.782;23.388;2023-06-22T02:42:55;95962.66;;;20.29;100.00
19590;BME280;12231;42.782;23.388;2023-06-22T02:45:23;95966.53;;;20.62;100.00
19590;BME280;12231;42.782;23.388;2023-06-22T02:47:48;95970.09;;;20.71;100.00
19590;BME280;12231;42.782;23.388;2023-06-22T02:50:14;95979.69;;;20.99;100.00
19590;BME280;12231;42.782;23.388;2023-06-22T02:52:39;95975.72;;;21.22;100.00
19590;BME280;12231;42.782;23.388;2023-06-22T02:55:06;95969.34;;;21.42;100.00
19590;BME280;12231;42.782;23.388;2023-06-22T02:57:32;95972.69;;;21.61;100.00
19590;BME280;12231;42.782;23.388;2023-06-22T02:59:58;95975.63;;;21.76;100.00
19590;BME280;12231;42.782;23.388;2023-06-22T03:02:23;95986.44;;;21.91;100.00
19590;BME280;12231;42.782;23.388;2023-06-22T03:04:49;95982.31;;;22.06;100.00
19590;BME280;12231;42.782;23.388;2023-06-22T03:07:15;95980.28;;;22.00;99.62
19590;BME280;12231;42.782;23.388;2023-06-22T03:09:42;95989.72;;;21.75;98.93
19590;BME280;12231;42.782;23.388;2023-06-22T03:12:08;95991.53;;;21.30;100.00
19590;BME280;12231;42.782;23.388;2023-06-22T03:14:34;95994.13;;;21.03;100.00
19590;BME280;12231;42.782;23.388;2023-06-22T03:16:59;96001.50;;;20.80;100.00
19590;BME280;12231;42.782;23.388;2023-06-22T03:19:28;95993.19;;;21.04;100.00
19590;BME280;12231;42.782;23.388;2023-06-22T03:21:55;95991.97;;;21.25;100.00
19590;BME280;12231;42.782;23.388;2023-06-22T03:24:20;95998.19;;;21.51;100.00
19590;BME280;12231;42.782;23.388;2023-06-22T03:26:46;96001.59;;;21.79;100.00
19590;BME280;12231;42.782;23.388;2023-06-22T03:29:12;95993.94;;;22.03;100.00
19590;BME280;12231;42.782;23.388;2023-06-22T03:31:37;95999.84;;;22.23;100.00
19590;BME280;12231;42.782;23.388;2023-06-22T03:34:03;95996.97;;;22.34;100.00
19590;BME280;12231;42.782;23.388;2023-06-22T03:36:28;96002.75;;;22.55;100.00
19590;BME280;12231;42.782;23.388;2023-06-22T03:38:55;96005.16;;;22.74;100.00
19590;BME280;12231;42.782;23.388;2023-06-22T03:41:20;96011.78;;;22.78;99.76
19590;BME280;12231;42.782;23.388;2023-06-22T03:43:46;96008.91;;;22.97;98.95
19590;BME280;12231;42.782;23.388;2023-06-22T03:46:11;96014.25;;;23.13;95.99
19590;BME280;12231;42.782;23.388;2023-06-22T03:48:37;96020.19;;;23.15;93.52
19590;BME280;12231;42.782;23.388;2023-06-22T03:51:03;96021.50;;;23.19;92.53
19590;BME280;12231;42.782;23.388;2023-06-22T03:53:29;96029.13;;;22.96;92.40
19590;BME280;12231;42.782;23.388;2023-06-22T03:55:54;96031.34;;;22.40;94.71
19590;BME280;12231;42.782;23.388;2023-06-22T03:58:20;96027.16;;;22.30;95.34
19590;BME280;12231;42.782;23.388;2023-06-22T04:00:50;96027.25;;;21.85;98.58
19590;BME280;12231;42.782;23.388;2023-06-22T04:03:16;96016.34;;;21.62;99.33
19590;BME280;12231;42.782;23.388;2023-06-22T04:05:44;96017.81;;;21.20;100.00
19590;BME280;12231;42.782;23.388;2023-06-22T04:08:09;96017.44;;;21.15;100.00
19590;BME280;12231;42.782;23.388;2023-06-22T04:10:35;96012.44;;;21.22;100.00
19590;BME280;12231;42.782;23.388;2023-06-22T04:13:00;96008.38;;;21.27;100.00
19590;BME280;12231;42.782;23.388;2023-06-22T04:15:26;96010.25;;;21.62;100.00
19590;BME280;12231;42.782;23.388;2023-06-22T04:17:51;96005.19;;;22.13;100.00
19590;BME280;12231;42.782;23.388;2023-06-22T04:20:17;96004.38;;;22.56;100.00
19590;BME280;12231;42.782;23.388;2023-06-22T04:22:42;96008.31;;;23.11;95.51
19590;BME280;12231;42.782;23.388;2023-06-22T04:25:08;96002.47;;;23.67;92.70
19590;BME280;12231;42.782;23.388;2023-06-22T04:27:33;96002.72;;;24.13;90.07
19590;BME280;12231;42.782;23.388;2023-06-22T04:30:06;95998.09;;;24.64;88.18
19590;BME280;12231;42.782;23.388;2023-06-22T04:32:32;96004.16;;;25.04;85.99
19590;BME280;12231;42.782;23.388;2023-06-22T04:34:57;96005.16;;;25.42;83.42
19590;BME280;12231;42.782;23.388;2023-06-22T04:37:23;96000.53;;;25.75;82.00
19590;BME280;12231;42.782;23.388;2023-06-22T04:39:49;95997.72;;;26.29;79.89
19590;BME280;12231;42.782;23.388;2023-06-22T04:42:15;95984.72;;;26.79;77.23
19590;BME280;12231;42.782;23.388;2023-06-22T04:44:40;95984.75;;;27.38;74.23
19590;BME280;12231;42.782;23.388;2023-06-22T04:47:06;95993.41;;;27.96;71.11
19590;BME280;12231;42.782;23.388;2023-06-22T04:49:34;96005.84;;;28.38;68.56
19590;BME280;12231;42.782;23.388;2023-06-22T04:52:08;96006.75;;;29.28;65.18
19590;BME280;12231;42.782;23.388;2023-06-22T04:54:34;96002.28;;;29.01;62.43
19590;BME280;12231;42.782;23.388;2023-06-22T04:57:01;96005.88;;;29.96;59.65
19590;BME280;12231;42.782;23.388;2023-06-22T04:59:28;96005.09;;;30.15;56.32
19590;BME280;12231;42.782;23.388;2023-06-22T05:01:55;95998.22;;;30.86;54.34
19590;BME280;12231;42.782;23.388;2023-06-22T05:04:24;95995.06;;;31.41;54.20
19590;BME280;12231;42.782;23.388;2023-06-22T05:06:50;95989.59;;;30.97;53.33
19590;BME280;12231;42.782;23.388;2023-06-22T05:09:16;95973.13;;;31.83;52.11
19590;BME280;12231;42.782;23.388;2023-06-22T05:11:42;95985.16;;;32.67;50.00
19590;BME280;12231;42.782;23.388;2023-06-22T05:14:08;95999.56;;;32.91;48.85
19590;BME280;12231;42.782;23.388;2023-06-22T05:16:33;96000.34;;;33.41;47.29
19590;BME280;12231;42.782;23.388;2023-06-22T05:18:59;96003.59;;;33.61;46.74
19590;BME280;12231;42.782;23.388;2023-06-22T05:21:26;95994.09;;;34.12;45.22
19590;BME280;12231;42.782;23.388;2023-06-22T05:23:53;95996.69;;;33.71;46.81
19590;BME280;12231;42.782;23.388;2023-06-22T05:26:20;96007.59;;;32.29;49.11
19590;BME280;12231;42.782;23.388;2023-06-22T05:28:46;96003.13;;;31.85;51.54
19590;BME280;12231;42.782;23.388;2023-06-22T05:31:13;96015.72;;;33.45;47.75
19590;BME280;12231;42.782;23.388;2023-06-22T05:33:40;96002.84;;;34.19;45.35
19590;BME280;12231;42.782;23.388;2023-06-22T05:36:05;96011.88;;;34.78;43.89
19590;BME280;12231;42.782;23.388;2023-06-22T05:38:31;96010.31;;;35.46;41.49
19590;BME280;12231;42.782;23.388;2023-06-22T05:40:56;96008.66;;;35.56;40.82
19590;BME280;12231;42.782;23.388;2023-06-22T05:43:22;96007.31;;;35.82;41.50
19590;BME280;12231;42.782;23.388;2023-06-22T05:45:47;96010.16;;;35.64;40.04
19590;BME280;12231;42.782;23.388;2023-06-22T05:48:13;96011.69;;;36.39;38.53
19590;BME280;12231;42.782;23.388;2023-06-22T05:50:38;96014.00;;;35.91;39.02
19590;BME280;12231;42.782;23.388;2023-06-22T05:53:03;96014.03;;;35.10;40.15
19590;BME280;12231;42.782;23.388;2023-06-22T05:55:29;96003.56;;;35.95;40.14
19590;BME280;12231;42.782;23.388;2023-06-22T05:57:54;96007.41;;;35.99;39.02
19590;BME280;12231;42.782;23.388;2023-06-22T06:00:20;96005.50;;;35.25;40.19
19590;BME280;12231;42.782;23.388;2023-06-22T06:02:47;96007.88;;;34.27;42.55
19590;BME280;12231;42.782;23.388;2023-06-22T06:05:14;96004.06;;;34.23;42.43
19590;BME280;12231;42.782;23.388;2023-06-22T06:07:40;96006.72;;;35.92;39.37
19590;BME280;12231;42.782;23.388;2023-06-22T06:10:06;96011.44;;;35.73;40.88
19590;BME280;12231;42.782;23.388;2023-06-22T06:12:32;96007.91;;;36.68;38.92
19590;BME280;12231;42.782;23.388;2023-06-22T06:14:57;96008.38;;;36.49;39.55
19590;BME280;12231;42.782;23.388;2023-06-22T06:17:23;96005.25;;;36.40;39.54
19590;BME280;12231;42.782;23.388;2023-06-22T06:19:49;96006.47;;;35.93;40.23
19590;BME280;12231;42.782;23.388;2023-06-22T06:22:15;96005.44;;;36.50;40.12
19590;BME280;12231;42.782;23.388;2023-06-22T06:24:40;96006.19;;;36.06;40.32
19590;BME280;12231;42.782;23.388;2023-06-22T06:27:06;95998.97;;;36.96;38.97
19590;BME280;12231;42.782;23.388;2023-06-22T06:29:32;96006.72;;;37.26;38.43
19590;BME280;12231;42.782;23.388;2023-06-22T06:31:57;96010.00;;;36.50;39.91
19590;BME280;12231;42.782;23.388;2023-06-22T06:34:23;96012.75;;;36.99;38.88
19590;BME280;12231;42.782;23.388;2023-06-22T06:36:48;96010.38;;;37.20;38.92
19590;BME280;12231;42.782;23.388;2023-06-22T06:39:13;95995.63;;;38.52;37.07
19590;BME280;12231;42.782;23.388;2023-06-22T06:41:39;95998.84;;;38.22;37.82
19590;BME280;12231;42.782;23.388;2023-06-22T06:44:04;95995.94;;;38.07;37.41
19590;BME280;12231;42.782;23.388;2023-06-22T06:46:30;95995.66;;;34.73;43.24
19590;BME280;12231;42.782;23.388;2023-06-22T06:48:55;95988.31;;;35.72;41.66
19590;BME280;12231;42.782;23.388;2023-06-22T06:51:21;95988.13;;;37.07;39.23
19590;BME280;12231;42.782;23.388;2023-06-22T06:53:46;95982.16;;;37.39;37.85
19590;BME280;12231;42.782;23.388;2023-06-22T06:56:11;95981.41;;;38.08;37.17
19590;BME280;12231;42.782;23.388;2023-06-22T06:58:40;95971.88;;;38.49;37.11
19590;BME280;12231;42.782;23.388;2023-06-22T07:01:05;95977.88;;;37.43;37.48
19590;BME280;12231;42.782;23.388;2023-06-22T07:03:31;95985.59;;;37.56;38.30
19590;BME280;12231;42.782;23.388;2023-06-22T07:05:58;95977.66;;;35.26;43.17
19590;BME280;12231;42.782;23.388;2023-06-22T07:08:23;95977.28;;;34.76;43.88
19590;BME280;12231;42.782;23.388;2023-06-22T07:10:49;95977.00;;;35.70;43.45
19590;BME280;12231;42.782;23.388;2023-06-22T07:13:15;95980.31;;;35.49;42.58
19590;BME280;12231;42.782;23.388;2023-06-22T07:15:41;95977.25;;;36.69;39.66
19590;BME280;12231;42.782;23.388;2023-06-22T07:18:07;95981.09;;;36.12;41.01
19590;BME280;12231;42.782;23.388;2023-06-22T07:20:32;95974.16;;;36.44;40.27
19590;BME280;12231;42.782;23.388;2023-06-22T07:22:58;95969.88;;;37.09;38.88
19590;BME280;12231;42.782;23.388;2023-06-22T07:25:23;95978.09;;;38.81;35.88
19590;BME280;12231;42.782;23.388;2023-06-22T07:30:27;95986.59;;;37.88;38.34
19590;BME280;12231;42.782;23.388;2023-06-22T07:32:53;95988.50;;;39.35;36.16
19590;BME280;12231;42.782;23.388;2023-06-22T07:35:19;95984.13;;;39.24;35.67
19590;BME280;12231;42.782;23.388;2023-06-22T07:37:44;95975.38;;;40.21;34.47
19590;BME280;12231;42.782;23.388;2023-06-22T07:40:10;95982.78;;;40.60;34.22
19590;BME280;12231;42.782;23.388;2023-06-22T07:42:36;95974.94;;;40.69;34.21
19590;BME280;12231;42.782;23.388;2023-06-22T07:45:02;95971.97;;;39.79;34.79
19590;BME280;12231;42.782;23.388;2023-06-22T07:47:28;95971.63;;;38.23;39.15
19590;BME280;12231;42.782;23.388;2023-06-22T07:49:57;95970.06;;;41.01;34.09
19590;BME280;12231;42.782;23.388;2023-06-22T07:52:24;95966.75;;;40.24;34.45
19590;BME280;12231;42.782;23.388;2023-06-22T07:54:50;95964.47;;;38.97;37.74
19590;BME280;12231;42.782;23.388;2023-06-22T07:57:16;95963.72;;;41.71;33.54
19590;BME280;12231;42.782;23.388;2023-06-22T07:59:41;95960.91;;;42.83;31.32
19590;BME280;12231;42.782;23.388;2023-06-22T08:02:07;95959.03;;;42.84;29.58
19590;BME280;12231;42.782;23.388;2023-06-22T08:04:33;95960.31;;;42.53;30.01
19590;BME280;12231;42.782;23.388;2023-06-22T08:07:00;95955.78;;;39.27;34.86
19590;BME280;12231;42.782;23.388;2023-06-22T08:09:28;95953.47;;;40.22;34.19
19590;BME280;12231;42.782;23.388;2023-06-22T08:11:53;95947.06;;;39.10;34.41
19590;BME280;12231;42.782;23.388;2023-06-22T08:14:20;95945.31;;;39.40;34.73
19590;BME280;12231;42.782;23.388;2023-06-22T08:16:46;95940.78;;;40.28;34.65
19590;BME280;12231;42.782;23.388;2023-06-22T08:19:12;95945.66;;;37.09;39.15
19590;BME280;12231;42.782;23.388;2023-06-22T08:21:38;95939.34;;;38.28;37.58
19590;BME280;12231;42.782;23.388;2023-06-22T08:24:04;95939.63;;;39.37;36.01
19590;BME280;12231;42.782;23.388;2023-06-22T08:26:29;95934.97;;;39.79;34.81
19590;BME280;12231;42.782;23.388;2023-06-22T08:28:55;95938.88;;;40.13;35.12
19590;BME280;12231;42.782;23.388;2023-06-22T08:31:22;95954.75;;;39.38;35.20
19590;BME280;12231;42.782;23.388;2023-06-22T08:33:47;95949.28;;;38.86;36.62
19590;BME280;12231;42.782;23.388;2023-06-22T08:36:13;95949.53;;;38.85;36.93
19590;BME280;12231;42.782;23.388;2023-06-22T08:38:39;95949.84;;;38.03;37.57
19590;BME280;12231;42.782;23.388;2023-06-22T08:41:04;95951.03;;;35.47;42.01
19590;BME280;12231;42.782;23.388;2023-06-22T08:43:30;95944.44;;;36.34;41.68
19590;BME280;12231;42.782;23.388;2023-06-22T08:45:55;95933.97;;;38.60;37.99
19590;BME280;12231;42.782;23.388;2023-06-22T08:48:21;95928.41;;;40.57;35.40
19590;BME280;12231;42.782;23.388;2023-06-22T08:50:49;95932.69;;;40.28;34.39
19590;BME280;12231;42.782;23.388;2023-06-22T08:53:15;95923.44;;;42.47;31.42
19590;BME280;12231;42.782;23.388;2023-06-22T08:55:40;95919.47;;;40.61;33.91
19590;BME280;12231;42.782;23.388;2023-06-22T08:58:06;95916.81;;;39.08;36.55
19590;BME280;12231;42.782;23.388;2023-06-22T09:00:32;95915.69;;;41.13;34.27
19590;BME280;12231;42.782;23.388;2023-06-22T09:03:00;95912.22;;;39.55;36.82
19590;BME280;12231;42.782;23.388;2023-06-22T09:05:25;95917.06;;;39.06;37.16
19590;BME280;12231;42.782;23.388;2023-06-22T09:07:51;95915.56;;;39.30;36.27
19590;BME280;12231;42.782;23.388;2023-06-22T09:10:17;95914.59;;;40.43;35.56
19590;BME280;12231;42.782;23.388;2023-06-22T09:12:42;95913.06;;;41.71;32.46
19590;BME280;12231;42.782;23.388;2023-06-22T09:15:08;95923.78;;;40.37;34.04
19590;BME280;12231;42.782;23.388;2023-06-22T09:17:34;95910.81;;;40.44;34.25
19590;BME280;12231;42.782;23.388;2023-06-22T09:20:01;95916.03;;;38.81;36.44
19590;BME280;12231;42.782;23.388;2023-06-22T09:22:27;95908.91;;;41.00;32.45
19590;BME280;12231;42.782;23.388;2023-06-22T09:24:55;95917.84;;;40.40;34.44
19590;BME280;12231;42.782;23.388;2023-06-22T09:27:21;95915.78;;;39.19;35.35
19590;BME280;12231;42.782;23.388;2023-06-22T09:29:50;95910.06;;;39.10;36.15
19590;BME280;12231;42.782;23.388;2023-06-22T09:32:15;95912.66;;;40.09;33.68
19590;BME280;12231;42.782;23.388;2023-06-22T09:34:41;95912.47;;;38.38;37.70
19590;BME280;12231;42.782;23.388;2023-06-22T09:37:06;95909.34;;;38.20;38.98
19590;BME280;12231;42.782;23.388;2023-06-22T09:39:32;95914.44;;;37.95;38.22
19590;BME280;12231;42.782;23.388;2023-06-22T09:42:00;95907.97;;;38.49;37.95
19590;BME280;12231;42.782;23.388;2023-06-22T09:44:25;95904.84;;;38.30;38.62
19590;BME280;12231;42.782;23.388;2023-06-22T09:46:52;95894.63;;;37.14;40.98
19590;BME280;12231;42.782;23.388;2023-06-22T09:49:18;95887.94;;;37.60;38.95
19590;BME280;12231;42.782;23.388;2023-06-22T09:51:43;95886.69;;;37.46;38.09
19590;BME280;12231;42.782;23.388;2023-06-22T09:54:08;95892.28;;;37.01;39.60
19590;BME280;12231;42.782;23.388;2023-06-22T09:56:34;95894.19;;;36.84;40.42
19590;BME280;12231;42.782;23.388;2023-06-22T09:58:59;95881.50;;;36.80;39.88
19590;BME280;12231;42.782;23.388;2023-06-22T10:01:25;95879.41;;;34.85;43.98
19590;BME280;12231;42.782;23.388;2023-06-22T10:03:52;95881.75;;;34.93;44.50
19590;BME280;12231;42.782;23.388;2023-06-22T10:06:19;95888.16;;;34.69;45.85
19590;BME280;12231;42.782;23.388;2023-06-22T10:08:45;95882.97;;;34.33;47.25
19590;BME280;12231;42.782;23.388;2023-06-22T10:11:10;95879.66;;;35.35;44.93
19590;BME280;12231;42.782;23.388;2023-06-22T10:13:36;95876.47;;;35.10;44.31
19590;BME280;12231;42.782;23.388;2023-06-22T10:16:01;95872.38;;;34.73;45.26
19590;BME280;12231;42.782;23.388;2023-06-22T10:18:27;95868.75;;;35.93;43.19
19590;BME280;12231;42.782;23.388;2023-06-22T10:20:52;95871.50;;;35.69;43.05
19590;BME280;12231;42.782;23.388;2023-06-22T10:23:21;95876.56;;;35.94;43.13
19590;BME280;12231;42.782;23.388;2023-06-22T10:25:46;95867.56;;;35.60;42.58
19590;BME280;12231;42.782;23.388;2023-06-22T10:28:12;95865.38;;;35.57;45.23
19590;BME280;12231;42.782;23.388;2023-06-22T10:30:39;95866.47;;;35.73;43.26
19590;BME280;12231;42.782;23.388;2023-06-22T10:33:09;95865.47;;;34.30;47.56
19590;BME280;12231;42.782;23.388;2023-06-22T10:35:35;95856.53;;;34.83;43.10
19590;BME280;12231;42.782;23.388;2023-06-22T10:38:03;95858.72;;;35.60;40.03
19590;BME280;12231;42.782;23.388;2023-06-22T10:40:28;95847.78;;;35.78;42.26
19590;BME280;12231;42.782;23.388;2023-06-22T10:42:54;95851.72;;;35.59;43.01
19590;BME280;12231;42.782;23.388;2023-06-22T10:45:19;95847.63;;;35.17;42.19
19590;BME280;12231;42.782;23.388;2023-06-22T10:47:45;95848.38;;;35.01;43.73
19590;BME280;12231;42.782;23.388;2023-06-22T10:50:11;95854.78;;;34.30;42.81
19590;BME280;12231;42.782;23.388;2023-06-22T10:52:37;95839.19;;;34.97;43.84
19590;BME280;12231;42.782;23.388;2023-06-22T10:55:02;95841.19;;;34.90;45.41
19590;BME280;12231;42.782;23.388;2023-06-22T10:57:27;95844.44;;;35.71;42.46
19590;BME280;12231;42.782;23.388;2023-06-22T10:59:53;95845.13;;;35.95;42.85
19590;BME280;12231;42.782;23.388;2023-06-22T11:02:18;95843.72;;;35.08;43.67
19590;BME280;12231;42.782;23.388;2023-06-22T11:04:46;95844.25;;;35.89;41.34
19590;BME280;12231;42.782;23.388;2023-06-22T11:07:13;95847.34;;;36.14;40.12
19590;BME280;12231;42.782;23.388;2023-06-22T11:09:38;95840.38;;;35.40;42.06
19590;BME280;12231;42.782;23.388;2023-06-22T11:12:05;95842.53;;;35.04;42.41
19590;BME280;12231;42.782;23.388;2023-06-22T11:14:31;95838.47;;;36.30;40.07
19590;BME280;12231;42.782;23.388;2023-06-22T11:16:56;95830.19;;;37.25;39.67
19590;BME280;12231;42.782;23.388;2023-06-22T11:19:21;95823.94;;;37.94;38.57
19590;BME280;12231;42.782;23.388;2023-06-22T11:21:47;95839.97;;;36.38;37.61
19590;BME280;12231;42.782;23.388;2023-06-22T11:24:12;95831.84;;;36.71;38.43
19590;BME280;12231;42.782;23.388;2023-06-22T11:26:37;95819.53;;;37.35;37.04
19590;BME280;12231;42.782;23.388;2023-06-22T11:29:03;95816.97;;;36.80;40.16
19590;BME280;12231;42.782;23.388;2023-06-22T11:31:34;95820.75;;;35.68;40.80
19590;BME280;12231;42.782;23.388;2023-06-22T11:34:00;95815.19;;;34.90;43.53
19590;BME280;12231;42.782;23.388;2023-06-22T11:36:26;95818.19;;;35.45;40.64
19590;BME280;12231;42.782;23.388;2023-06-22T11:38:51;95809.50;;;35.15;41.65
19590;BME280;12231;42.782;23.388;2023-06-22T11:41:17;95815.41;;;35.28;40.51
19590;BME280;12231;42.782;23.388;2023-06-22T11:43:42;95821.94;;;35.44;39.63
19590;BME280;12231;42.782;23.388;2023-06-22T11:46:08;95826.19;;;35.17;42.14
19590;BME280;12231;42.782;23.388;2023-06-22T11:48:33;95828.09;;;34.12;45.58
19590;BME280;12231;42.782;23.388;2023-06-22T11:50:58;95823.13;;;33.75;45.04
19590;BME280;12231;42.782;23.388;2023-06-22T11:53:26;95819.69;;;33.08;47.47
19590;BME280;12231;42.782;23.388;2023-06-22T11:55:51;95816.31;;;33.01;46.84
19590;BME280;12231;42.782;23.388;2023-06-22T11:58:19;95822.00;;;32.26;48.72
19590;BME280;12231;42.782;23.388;2023-06-22T12:00:44;95823.72;;;31.89;51.54
19590;BME280;12231;42.782;23.388;2023-06-22T12:03:10;95819.19;;;30.70;56.19
19590;BME280;12231;42.782;23.388;2023-06-22T12:05:37;95819.25;;;30.51;56.74
19590;BME280;12231;42.782;23.388;2023-06-22T12:08:03;95813.47;;;30.67;55.54
19590;BME280;12231;42.782;23.388;2023-06-22T12:10:28;95817.19;;;30.40;57.25
19590;BME280;12231;42.782;23.388;2023-06-22T12:12:54;95817.03;;;30.22;57.97
19590;BME280;12231;42.782;23.388;2023-06-22T12:15:20;95838.09;;;29.78;58.45
19590;BME280;12231;42.782;23.388;2023-06-22T12:17:47;95838.31;;;29.76;57.81
19590;BME280;12231;42.782;23.388;2023-06-22T12:20:13;95841.09;;;29.62;57.87
19590;BME280;12231;42.782;23.388;2023-06-22T12:22:38;95843.63;;;29.76;58.18
19590;BME280;12231;42.782;23.388;2023-06-22T12:25:04;95845.47;;;29.89;56.85
19590;BME280;12231;42.782;23.388;2023-06-22T12:27:30;95849.34;;;29.93;56.83
19590;BME280;12231;42.782;23.388;2023-06-22T12:29:56;95853.44;;;29.95;58.23
19590;BME280;12231;42.782;23.388;2023-06-22T12:32:21;95859.78;;;30.01;59.65
19590;BME280;12231;42.782;23.388;2023-06-22T12:34:47;95881.66;;;30.09;60.41
19590;BME280;12231;42.782;23.388;2023-06-22T12:37:12;95879.28;;;29.41;64.05
19590;BME280;12231;42.782;23.388;2023-06-22T12:39:40;95878.63;;;29.32;63.92
19590;BME280;12231;42.782;23.388;2023-06-22T12:42:06;95875.56;;;28.82;66.22
19590;BME280;12231;42.782;23.388;2023-06-22T12:44:34;95869.88;;;28.91;65.40
19590;BME280;12231;42.782;23.388;2023-06-22T12:46:59;95866.44;;;28.97;64.96
19590;BME280;12231;42.782;23.388;2023-06-22T12:49:25;95855.97;;;28.49;66.14